createdAt,value
2019-04-21T00:03:23.186Z,86.5
2019-04-21T00:13:23.230Z,86.9
2019-04-21T00:18:07.524Z,86.7
2019-04-21T00:23:16.542Z,86.3
2019-04-21T00:28:13.833Z,86.9
2019-04-21T00:33:02.839Z,85.8
2019-04-21T00:38:07.746Z,86
2019-04-21T00:43:03.353Z,85.9
2019-04-21T00:48:03.644Z,85.6
2019-04-21T00:52:59.188Z,85.9
2019-04-21T00:57:55.848Z,86.5
2019-04-21T01:07:45.319Z,87.1
2019-04-21T01:12:41.432Z,86.7
2019-04-21T01:17:40.326Z,87.4
2019-04-21T01:22:13.919Z,87.4
2019-04-21T01:27:18.345Z,87.3
2019-04-21T01:32:29.074Z,87.1
2019-04-21T01:37:17.694Z,87.5
2019-04-21T01:42:15.577Z,87.5
2019-04-21T01:47:09.960Z,87.5
2019-04-21T01:52:17.441Z,87.5
2019-04-21T01:57:01.485Z,87.8
2019-04-21T02:02:04.939Z,88
2019-04-21T02:06:57.114Z,88.1
2019-04-21T02:11:54.577Z,88.1
2019-04-21T02:16:51.874Z,87.9
2019-04-21T02:21:37.782Z,88.2
2019-04-21T02:26:45.499Z,88.3
2019-04-21T02:36:52.744Z,88.1
2019-04-21T02:46:37.152Z,87.8
2019-04-21T03:01:30.913Z,88.3
2019-04-21T03:06:22.275Z,87.6
2019-04-21T03:11:11.834Z,88
2019-04-21T03:16:22.173Z,88.2
2019-04-21T03:26:26.967Z,88.3
2019-04-21T03:31:34.322Z,88.1
2019-04-21T03:40:57.043Z,88.1
2019-04-21T03:45:48.346Z,87.8
2019-04-21T04:00:49.390Z,88
2019-04-21T04:05:47.639Z,87.2
2019-04-21T04:10:31.084Z,87
2019-04-21T04:15:45.098Z,86
2019-04-21T04:20:27.718Z,84.6
2019-04-21T04:25:33.250Z,83.7
2019-04-21T04:30:21.359Z,84.7
2019-04-21T04:35:33.453Z,84.8
2019-04-21T04:40:13.176Z,84.4
2019-04-21T04:45:12.387Z,80.7
2019-04-21T04:49:59.124Z,83.1
2019-04-21T04:55:00.391Z,80.2
2019-04-21T05:00:09.274Z,73.5
2019-04-21T05:05:13.236Z,72.1
2019-04-21T05:09:51.982Z,68.3
2019-04-21T05:14:51.266Z,64.9
2019-04-21T05:20:01.486Z,61.4
2019-04-21T05:24:33.087Z,59.2
2019-04-21T05:29:29.479Z,57.3
2019-04-21T05:34:30.349Z,54.1
2019-04-21T05:39:22.983Z,52.2
2019-04-21T05:44:34.599Z,51.5
2019-04-21T05:49:21.541Z,50
2019-04-21T05:54:29.194Z,48.4
2019-04-21T05:59:19.930Z,46.6
2019-04-21T06:04:38.136Z,45.3
2019-04-21T06:09:18.839Z,44.6
2019-04-21T06:14:13.801Z,43.4
2019-04-21T06:19:10.009Z,42.8
2019-04-21T06:24:09.969Z,41.8
2019-04-21T06:29:08.396Z,40.8
2019-04-21T06:34:03.392Z,40.1
2019-04-21T06:39:15.203Z,38.8
2019-04-21T06:44:01.032Z,38.9
2019-04-21T06:48:59.394Z,37.8
2019-04-21T06:53:58.923Z,36.9
2019-04-21T06:58:50.090Z,35.5
2019-04-21T07:08:52.719Z,33
2019-04-21T07:13:36.236Z,33.3
2019-04-21T07:18:40.888Z,30.8
2019-04-21T07:23:36.682Z,31
2019-04-21T07:28:38.570Z,30.2
2019-04-21T07:38:26.722Z,30.3
2019-04-21T07:43:16.269Z,31.4
2019-04-21T07:48:18.593Z,31.2
2019-04-21T07:53:20.973Z,34
2019-04-21T07:58:05.618Z,35
2019-04-21T08:03:07.291Z,33.6
2019-04-21T08:07:57.676Z,32.8
2019-04-21T08:12:59.322Z,32.5
2019-04-21T08:17:59.453Z,29.7
2019-04-21T08:22:58.437Z,29.4
2019-04-21T08:27:53.721Z,27.3
2019-04-21T08:37:42.816Z,37.8
2019-04-21T08:42:37.915Z,38.8
2019-04-21T08:47:32.925Z,33.6
2019-04-21T08:52:35.855Z,38
2019-04-21T08:57:21.333Z,36.8
2019-04-21T09:02:22.802Z,39.3
2019-04-21T09:07:19.258Z,37.8
2019-04-21T09:12:10.140Z,39.8
2019-04-21T09:16:59.973Z,29.5
2019-04-21T09:22:00.294Z,30.2
2019-04-21T09:26:51.201Z,29.8
2019-04-21T09:31:35.550Z,31.3
2019-04-21T09:36:30.151Z,29.2
2019-04-21T09:41:22.727Z,28.5
2019-04-21T09:46:16.119Z,30.5
2019-04-21T09:51:10.997Z,24.5
2019-04-21T09:56:11.680Z,25.2
2019-04-21T10:01:11.473Z,25.4
2019-04-21T10:05:56.380Z,26.2
2019-04-21T10:10:51.589Z,26
2019-04-21T10:15:46.885Z,25.7
2019-04-21T10:20:42.841Z,27
2019-04-21T10:25:38.617Z,24.9
2019-04-21T10:30:33.119Z,26.2
2019-04-21T10:35:28.963Z,23
2019-04-21T10:40:23.863Z,24.9
2019-04-21T10:45:19.147Z,23.2
2019-04-21T10:50:16.149Z,23.1
2019-04-21T12:07:31.240Z,16.5
2019-04-21T12:07:45.612Z,17.2
2019-04-21T12:08:04.074Z,100
2019-04-21T12:08:44.034Z,17.6
2019-04-21T12:13:25.075Z,23.6
2019-04-21T12:18:19.777Z,23.7
2019-04-21T12:23:14.491Z,25
2019-04-21T12:28:10.082Z,24.5
2019-04-21T12:33:06.095Z,22.2
2019-04-21T12:38:01.043Z,22.5
2019-04-21T12:42:56.868Z,21.7
2019-04-21T12:47:53.881Z,21.3
2019-04-21T12:52:49.555Z,22.9
2019-04-21T12:57:43.812Z,23.5
2019-04-21T13:02:39.942Z,22.3
2019-04-21T13:07:35.412Z,21.8
2019-04-21T13:12:33.648Z,21.7
2019-04-21T13:17:28.906Z,21.8
2019-04-21T13:22:25.842Z,23.9
2019-04-21T13:38:23.011Z,22.2
2019-04-21T13:38:35.096Z,21.7
2019-04-21T13:38:43.099Z,21
2019-04-21T13:43:21.522Z,19.9
2019-04-21T13:48:16.898Z,21.4
2019-04-21T13:53:14.279Z,23.3
2019-04-21T13:58:08.509Z,24.7
2019-04-21T14:03:04.640Z,22.4
2019-04-21T14:07:58.302Z,24.8
2019-04-21T14:12:54.208Z,26
2019-04-21T14:17:48.973Z,23.2
2019-04-21T14:22:44.210Z,23.2
2019-04-21T14:27:39.272Z,22.5
2019-04-21T14:32:35.985Z,31.5
2019-04-21T14:37:30.812Z,28
2019-04-21T14:42:26.447Z,26.8
2019-04-21T14:47:21.424Z,26.4
2019-04-21T14:52:17.416Z,28.4
2019-04-21T14:57:13.558Z,29.4
2019-04-21T15:02:09.746Z,27.5
2019-04-21T15:07:03.744Z,30.9
2019-04-21T15:12:00.186Z,29.2
2019-04-21T15:16:54.537Z,29.7
2019-04-21T15:21:50.212Z,31.2
2019-04-21T15:26:46.401Z,31.2
2019-04-21T15:31:42.897Z,32.4
2019-04-21T15:36:35.933Z,31.1
2019-04-21T15:41:32.366Z,31.4
2019-04-21T15:46:26.763Z,29.5
2019-04-21T15:51:22.366Z,31.2
2019-04-21T15:56:18.305Z,30.3
2019-04-21T16:01:14.534Z,32.2
2019-04-21T16:06:09.988Z,35.8
2019-04-21T16:11:07.962Z,32.7
2019-04-21T16:16:00.020Z,33.3
2019-04-21T16:20:55.766Z,33.4
2019-04-21T16:25:50.740Z,38
2019-04-21T16:30:44.803Z,36.4
2019-04-21T16:35:40.019Z,39.1
2019-04-21T16:40:45.290Z,45.1
2019-04-21T16:45:30.675Z,41.9
2019-04-21T16:50:25.690Z,48.3
2019-04-21T16:55:21.243Z,45.9
2019-04-21T17:00:26.552Z,48.7
2019-04-21T17:05:12.137Z,47.2
2019-04-21T17:10:06.631Z,48.4
2019-04-21T17:15:18.205Z,48.7
2019-04-21T17:20:11.568Z,49.7
2019-04-21T17:24:52.625Z,52.3
2019-04-21T17:29:48.624Z,49.7
2019-04-21T17:34:43.671Z,50.6
2019-04-21T17:39:38.675Z,52.9
2019-04-21T17:44:33.302Z,52
2019-04-21T17:49:28.777Z,51.5
2019-04-21T17:54:32.050Z,52.4
2019-04-21T17:59:50.482Z,54.9
2019-04-21T18:04:30.319Z,53.4
2019-04-21T18:09:36.176Z,52.7
2019-04-21T18:14:05.269Z,53.1
2019-04-21T18:19:00.019Z,54
2019-04-21T18:24:05.421Z,53
2019-04-21T18:28:53.732Z,52.9
2019-04-21T18:33:47.486Z,51.2
2019-04-21T18:38:59.424Z,51.2
2019-04-21T18:44:06.333Z,53.1
2019-04-21T18:48:40.858Z,49.7
2019-04-21T18:53:40.805Z,50.6
2019-04-21T18:58:24.147Z,53
2019-04-21T19:03:25.157Z,52
2019-04-21T19:08:30.158Z,53.8
2019-04-21T19:23:16.180Z,49.8
2019-04-21T19:28:12.907Z,48.8
2019-04-21T19:33:08.792Z,50.4
2019-04-21T19:37:53.725Z,51.9
2019-04-21T19:42:55.619Z,49.5
2019-04-21T19:47:52.504Z,49.4
2019-04-21T19:52:43.439Z,52.7
2019-04-21T19:57:29.391Z,51.2
2019-04-21T20:02:24.814Z,52.5
2019-04-21T20:07:31.308Z,49.6
2019-04-21T20:12:35.387Z,49.2
2019-04-21T20:17:30.975Z,49.7
2019-04-21T20:22:07.120Z,49.4
2019-04-21T20:27:09.900Z,52.8
2019-04-21T20:32:24.225Z,56.3
2019-04-21T20:37:14.344Z,53.9
2019-04-21T20:41:58.906Z,54.4
2019-04-21T20:46:58.979Z,53.6
2019-04-21T20:52:03.315Z,51.8
2019-04-21T20:56:48.196Z,53.3
2019-04-21T21:01:48.737Z,52.6
2019-04-21T21:06:40.064Z,51.6
2019-04-21T21:11:36.206Z,53.5
2019-04-21T21:16:41.076Z,55.8
2019-04-21T21:21:29.370Z,58.4
2019-04-21T21:26:30.558Z,57.7
2019-04-21T21:31:17.440Z,57.3
2019-04-21T21:36:31.322Z,57.6
2019-04-21T21:41:03.078Z,57.9
2019-04-21T21:45:55.286Z,59.8
2019-04-21T21:50:56.252Z,60.6
2019-04-21T21:55:40.953Z,61.4
2019-04-21T22:00:41.862Z,60.9
2019-04-21T22:05:42.197Z,62.2
2019-04-21T22:10:27.521Z,62.5
2019-04-21T22:15:26.679Z,64
2019-04-21T22:20:36.978Z,62.4
2019-04-21T22:25:22.534Z,63.9
2019-04-21T22:30:11.296Z,63
2019-04-21T22:35:08.921Z,65.4
2019-04-21T22:40:12.127Z,64
2019-04-21T22:44:54.728Z,65.5
2019-04-21T22:49:50.605Z,64.4
2019-04-21T22:54:47.213Z,65.5
2019-04-21T22:59:45.234Z,66.1
2019-04-21T23:04:43.436Z,65.7
2019-04-21T23:09:32.921Z,66.6
2019-04-21T23:14:27.931Z,66.8
2019-04-21T23:19:35.471Z,68
2019-04-21T23:24:39.481Z,68.5
2019-04-21T23:29:42.483Z,67.7
2019-04-21T23:34:10.743Z,66.7
2019-04-21T23:39:05.712Z,67.4
2019-04-21T23:44:04.371Z,67.8
2019-04-21T23:49:06.913Z,69.5
2019-04-21T23:53:51.271Z,68.6
2019-04-21T23:58:51.751Z,69
